sensor_id;sensor_type;location;lat;lon;timestamp;P1;durP1;ratioP1;P2;durP2;ratioP2
351;SDS011;164;50.784;6.496;2023-03-11T00:01:42;4.05;;;1.70;;
351;SDS011;164;50.784;6.496;2023-03-11T00:04:11;7.10;;;2.25;;
351;SDS011;164;50.784;6.496;2023-03-11T00:06:38;2.55;;;1.50;;
351;SDS011;164;50.784;6.496;2023-03-11T00:09:05;3.90;;;2.30;;
351;SDS011;164;50.784;6.496;2023-03-11T00:11:32;4.03;;;1.88;;
351;SDS011;164;50.784;6.496;2023-03-11T00:13:59;3.72;;;1.90;;
351;SDS011;164;50.784;6.496;2023-03-11T00:16:27;5.97;;;3.13;;
351;SDS011;164;50.784;6.496;2023-03-11T00:18:54;3.03;;;2.00;;
351;SDS011;164;50.784;6.496;2023-03-11T00:21:23;6.18;;;2.08;;
351;SDS011;164;50.784;6.496;2023-03-11T00:23:51;5.40;;;2.03;;
351;SDS011;164;50.784;6.496;2023-03-11T00:26:18;4.28;;;2.20;;
351;SDS011;164;50.784;6.496;2023-03-11T00:28:45;2.80;;;1.48;;
351;SDS011;164;50.784;6.496;2023-03-11T00:31:13;4.53;;;2.13;;
351;SDS011;164;50.784;6.496;2023-03-11T00:33:41;8.60;;;2.10;;
351;SDS011;164;50.784;6.496;2023-03-11T00:36:10;4.90;;;2.05;;
351;SDS011;164;50.784;6.496;2023-03-11T00:38:45;4.38;;;1.92;;
351;SDS011;164;50.784;6.496;2023-03-11T00:41:12;3.85;;;1.83;;
351;SDS011;164;50.784;6.496;2023-03-11T00:43:39;4.15;;;1.83;;
351;SDS011;164;50.784;6.496;2023-03-11T00:46:07;4.15;;;2.28;;
351;SDS011;164;50.784;6.496;2023-03-11T00:48:35;7.28;;;1.75;;
351;SDS011;164;50.784;6.496;2023-03-11T00:51:02;2.03;;;1.75;;
351;SDS011;164;50.784;6.496;2023-03-11T00:53:29;6.78;;;2.42;;
351;SDS011;164;50.784;6.496;2023-03-11T00:55:58;5.30;;;1.60;;
351;SDS011;164;50.784;6.496;2023-03-11T00:58:25;7.45;;;1.65;;
351;SDS011;164;50.784;6.496;2023-03-11T01:00:54;11.57;;;2.40;;
351;SDS011;164;50.784;6.496;2023-03-11T01:03:22;4.85;;;1.73;;
351;SDS011;164;50.784;6.496;2023-03-11T01:05:49;3.63;;;2.25;;
351;SDS011;164;50.784;6.496;2023-03-11T01:08:16;3.15;;;1.42;;
351;SDS011;164;50.784;6.496;2023-03-11T01:10:44;7.22;;;2.30;;
351;SDS011;164;50.784;6.496;2023-03-11T01:13:12;5.93;;;1.85;;
351;SDS011;164;50.784;6.496;2023-03-11T01:15:40;3.57;;;1.50;;
351;SDS011;164;50.784;6.496;2023-03-11T01:18:07;7.88;;;1.60;;
351;SDS011;164;50.784;6.496;2023-03-11T01:20:34;8.60;;;2.13;;
351;SDS011;164;50.784;6.496;2023-03-11T01:23:02;2.58;;;1.42;;
351;SDS011;164;50.784;6.496;2023-03-11T01:25:29;4.82;;;1.60;;
351;SDS011;164;50.784;6.496;2023-03-11T01:27:57;2.53;;;1.60;;
351;SDS011;164;50.784;6.496;2023-03-11T01:30:26;10.25;;;2.90;;
351;SDS011;164;50.784;6.496;2023-03-11T01:32:55;3.67;;;1.92;;
351;SDS011;164;50.784;6.496;2023-03-11T01:35:23;2.47;;;1.52;;
351;SDS011;164;50.784;6.496;2023-03-11T01:37:50;2.85;;;2.00;;
351;SDS011;164;50.784;6.496;2023-03-11T01:40:19;5.72;;;1.88;;
351;SDS011;164;50.784;6.496;2023-03-11T01:42:47;3.72;;;2.00;;
351;SDS011;164;50.784;6.496;2023-03-11T01:45:24;3.95;;;1.80;;
351;SDS011;164;50.784;6.496;2023-03-11T01:47:54;3.05;;;1.30;;
351;SDS011;164;50.784;6.496;2023-03-11T01:50:21;6.30;;;1.70;;
351;SDS011;164;50.784;6.496;2023-03-11T01:52:49;3.90;;;1.40;;
351;SDS011;164;50.784;6.496;2023-03-11T01:55:16;3.08;;;2.17;;
351;SDS011;164;50.784;6.496;2023-03-11T01:57:44;5.65;;;1.90;;
351;SDS011;164;50.784;6.496;2023-03-11T02:00:13;3.13;;;1.35;;
351;SDS011;164;50.784;6.496;2023-03-11T02:02:41;8.32;;;1.75;;
351;SDS011;164;50.784;6.496;2023-03-11T02:05:10;3.65;;;1.85;;
351;SDS011;164;50.784;6.496;2023-03-11T02:07:37;6.70;;;2.38;;
351;SDS011;164;50.784;6.496;2023-03-11T02:10:05;7.05;;;2.15;;
351;SDS011;164;50.784;6.496;2023-03-11T02:12:34;5.65;;;1.65;;
351;SDS011;164;50.784;6.496;2023-03-11T02:15:02;4.80;;;1.98;;
351;SDS011;164;50.784;6.496;2023-03-11T02:17:30;3.08;;;2.20;;
351;SDS011;164;50.784;6.496;2023-03-11T02:20:02;2.65;;;1.90;;
351;SDS011;164;50.784;6.496;2023-03-11T02:22:37;5.50;;;1.92;;
351;SDS011;164;50.784;6.496;2023-03-11T02:25:07;4.78;;;1.83;;
351;SDS011;164;50.784;6.496;2023-03-11T02:27:37;4.20;;;2.38;;
351;SDS011;164;50.784;6.496;2023-03-11T02:30:06;3.45;;;1.83;;
351;SDS011;164;50.784;6.496;2023-03-11T02:32:34;5.82;;;2.00;;
351;SDS011;164;50.784;6.496;2023-03-11T02:35:02;3.88;;;1.88;;
351;SDS011;164;50.784;6.496;2023-03-11T02:37:29;5.68;;;2.45;;
351;SDS011;164;50.784;6.496;2023-03-11T02:40:09;6.43;;;1.90;;
351;SDS011;164;50.784;6.496;2023-03-11T02:42:47;4.40;;;2.17;;
351;SDS011;164;50.784;6.496;2023-03-11T02:45:15;3.92;;;2.20;;
351;SDS011;164;50.784;6.496;2023-03-11T02:47:44;3.95;;;1.90;;
351;SDS011;164;50.784;6.496;2023-03-11T02:50:12;4.57;;;2.08;;
351;SDS011;164;50.784;6.496;2023-03-11T02:52:40;4.93;;;1.88;;
351;SDS011;164;50.784;6.496;2023-03-11T02:55:07;5.90;;;2.67;;
351;SDS011;164;50.784;6.496;2023-03-11T02:57:35;6.68;;;1.60;;
351;SDS011;164;50.784;6.496;2023-03-11T03:00:05;4.72;;;2.22;;
351;SDS011;164;50.784;6.496;2023-03-11T03:02:37;8.68;;;2.45;;
351;SDS011;164;50.784;6.496;2023-03-11T03:05:05;4.30;;;2.50;;
351;SDS011;164;50.784;6.496;2023-03-11T03:07:32;4.95;;;2.42;;
351;SDS011;164;50.784;6.496;2023-03-11T03:10:00;5.00;;;2.45;;
351;SDS011;164;50.784;6.496;2023-03-11T03:12:27;4.97;;;2.10;;
351;SDS011;164;50.784;6.496;2023-03-11T03:14:55;3.25;;;2.25;;
351;SDS011;164;50.784;6.496;2023-03-11T03:17:24;8.75;;;2.75;;
351;SDS011;164;50.784;6.496;2023-03-11T03:19:51;6.07;;;2.30;;
351;SDS011;164;50.784;6.496;2023-03-11T03:22:19;4.97;;;2.17;;
351;SDS011;164;50.784;6.496;2023-03-11T03:24:48;5.82;;;2.70;;
351;SDS011;164;50.784;6.496;2023-03-11T03:27:15;3.50;;;1.98;;
351;SDS011;164;50.784;6.496;2023-03-11T03:29:42;4.78;;;2.38;;
351;SDS011;164;50.784;6.496;2023-03-11T03:32:09;6.55;;;3.25;;
351;SDS011;164;50.784;6.496;2023-03-11T03:34:38;8.73;;;3.03;;
351;SDS011;164;50.784;6.496;2023-03-11T03:37:05;4.15;;;2.17;;
351;SDS011;164;50.784;6.496;2023-03-11T03:39:32;4.40;;;2.13;;
351;SDS011;164;50.784;6.496;2023-03-11T03:42:00;3.92;;;2.15;;
351;SDS011;164;50.784;6.496;2023-03-11T03:44:27;6.32;;;2.83;;
351;SDS011;164;50.784;6.496;2023-03-11T03:46:54;8.45;;;3.05;;
351;SDS011;164;50.784;6.496;2023-03-11T03:49:22;5.05;;;2.30;;
351;SDS011;164;50.784;6.496;2023-03-11T03:51:50;3.30;;;2.55;;
351;SDS011;164;50.784;6.496;2023-03-11T03:54:18;8.18;;;2.42;;
351;SDS011;164;50.784;6.496;2023-03-11T03:56:45;2.92;;;2.35;;
351;SDS011;164;50.784;6.496;2023-03-11T03:59:12;13.82;;;2.92;;
351;SDS011;164;50.784;6.496;2023-03-11T04:01:40;3.83;;;2.10;;
351;SDS011;164;50.784;6.496;2023-03-11T04:09:48;3.03;;;2.45;;
351;SDS011;164;50.784;6.496;2023-03-11T04:12:15;7.30;;;2.20;;
351;SDS011;164;50.784;6.496;2023-03-11T04:14:43;2.92;;;2.05;;
351;SDS011;164;50.784;6.496;2023-03-11T04:17:10;3.40;;;2.70;;
351;SDS011;164;50.784;6.496;2023-03-11T04:19:38;4.57;;;2.45;;
351;SDS011;164;50.784;6.496;2023-03-11T04:22:05;4.88;;;2.30;;
351;SDS011;164;50.784;6.496;2023-03-11T04:24:32;4.55;;;2.47;;
351;SDS011;164;50.784;6.496;2023-03-11T04:27:01;4.88;;;2.53;;
351;SDS011;164;50.784;6.496;2023-03-11T04:29:28;4.65;;;3.35;;
351;SDS011;164;50.784;6.496;2023-03-11T04:31:55;6.30;;;2.97;;
351;SDS011;164;50.784;6.496;2023-03-11T04:34:22;4.13;;;2.42;;
351;SDS011;164;50.784;6.496;2023-03-11T04:36:50;3.72;;;2.35;;
351;SDS011;164;50.784;6.496;2023-03-11T04:39:18;3.13;;;2.33;;
351;SDS011;164;50.784;6.496;2023-03-11T04:41:45;6.75;;;2.85;;
351;SDS011;164;50.784;6.496;2023-03-11T04:44:14;7.82;;;2.60;;
351;SDS011;164;50.784;6.496;2023-03-11T04:46:41;4.68;;;2.90;;
351;SDS011;164;50.784;6.496;2023-03-11T04:49:08;9.18;;;2.90;;
351;SDS011;164;50.784;6.496;2023-03-11T04:51:35;5.60;;;2.35;;
351;SDS011;164;50.784;6.496;2023-03-11T04:54:03;7.18;;;2.65;;
351;SDS011;164;50.784;6.496;2023-03-11T04:56:30;5.07;;;2.58;;
351;SDS011;164;50.784;6.496;2023-03-11T04:58:57;12.75;;;4.15;;
351;SDS011;164;50.784;6.496;2023-03-11T05:01:26;8.02;;;3.28;;
351;SDS011;164;50.784;6.496;2023-03-11T05:03:54;8.05;;;2.47;;
351;SDS011;164;50.784;6.496;2023-03-11T05:06:21;7.75;;;2.85;;
351;SDS011;164;50.784;6.496;2023-03-11T05:08:48;4.10;;;2.35;;
351;SDS011;164;50.784;6.496;2023-03-11T05:11:15;5.30;;;2.65;;
351;SDS011;164;50.784;6.496;2023-03-11T05:13:42;4.47;;;2.95;;
351;SDS011;164;50.784;6.496;2023-03-11T05:16:09;3.65;;;2.70;;
351;SDS011;164;50.784;6.496;2023-03-11T05:18:38;2.78;;;2.25;;
351;SDS011;164;50.784;6.496;2023-03-11T05:21:05;5.60;;;2.78;;
351;SDS011;164;50.784;6.496;2023-03-11T05:23:33;6.18;;;3.28;;
351;SDS011;164;50.784;6.496;2023-03-11T05:26:00;8.23;;;4.47;;
351;SDS011;164;50.784;6.496;2023-03-11T05:28:27;7.15;;;3.72;;
351;SDS011;164;50.784;6.496;2023-03-11T05:30:55;4.47;;;3.70;;
351;SDS011;164;50.784;6.496;2023-03-11T05:33:22;8.50;;;4.00;;
351;SDS011;164;50.784;6.496;2023-03-11T05:35:50;6.43;;;3.30;;
351;SDS011;164;50.784;6.496;2023-03-11T05:38:18;6.18;;;3.80;;
351;SDS011;164;50.784;6.496;2023-03-11T05:40:45;4.55;;;3.30;;
351;SDS011;164;50.784;6.496;2023-03-11T05:43:12;9.65;;;4.15;;
351;SDS011;164;50.784;6.496;2023-03-11T05:45:40;6.22;;;3.75;;
351;SDS011;164;50.784;6.496;2023-03-11T05:48:07;8.05;;;4.38;;
351;SDS011;164;50.784;6.496;2023-03-11T05:50:34;8.60;;;4.70;;
351;SDS011;164;50.784;6.496;2023-03-11T05:53:03;8.40;;;4.43;;
351;SDS011;164;50.784;6.496;2023-03-11T05:55:30;6.50;;;3.88;;
351;SDS011;164;50.784;6.496;2023-03-11T05:57:57;8.75;;;3.38;;
351;SDS011;164;50.784;6.496;2023-03-11T06:00:25;7.60;;;4.20;;
351;SDS011;164;50.784;6.496;2023-03-11T06:02:53;6.80;;;4.00;;
351;SDS011;164;50.784;6.496;2023-03-11T06:05:20;6.25;;;3.40;;
351;SDS011;164;50.784;6.496;2023-03-11T06:07:48;5.72;;;4.00;;
351;SDS011;164;50.784;6.496;2023-03-11T06:10:16;5.30;;;3.47;;
351;SDS011;164;50.784;6.496;2023-03-11T06:12:44;7.88;;;4.40;;
351;SDS011;164;50.784;6.496;2023-03-11T06:15:12;7.57;;;3.63;;
351;SDS011;164;50.784;6.496;2023-03-11T06:17:39;7.75;;;4.15;;
351;SDS011;164;50.784;6.496;2023-03-11T06:20:06;6.70;;;3.20;;
351;SDS011;164;50.784;6.496;2023-03-11T06:22:34;7.45;;;3.70;;
351;SDS011;164;50.784;6.496;2023-03-11T06:25:02;6.18;;;3.42;;
351;SDS011;164;50.784;6.496;2023-03-11T06:27:30;3.90;;;3.70;;
351;SDS011;164;50.784;6.496;2023-03-11T06:29:57;8.18;;;4.13;;
351;SDS011;164;50.784;6.496;2023-03-11T06:32:25;6.18;;;3.55;;
351;SDS011;164;50.784;6.496;2023-03-11T06:34:53;6.13;;;4.20;;
351;SDS011;164;50.784;6.496;2023-03-11T06:37:20;7.85;;;4.00;;
351;SDS011;164;50.784;6.496;2023-03-11T06:39:50;8.02;;;3.92;;
351;SDS011;164;50.784;6.496;2023-03-11T06:42:18;5.85;;;3.97;;
351;SDS011;164;50.784;6.496;2023-03-11T06:44:47;7.32;;;4.22;;
351;SDS011;164;50.784;6.496;2023-03-11T06:47:14;8.05;;;3.88;;
351;SDS011;164;50.784;6.496;2023-03-11T06:49:42;5.25;;;3.60;;
351;SDS011;164;50.784;6.496;2023-03-11T06:52:09;6.80;;;3.85;;
351;SDS011;164;50.784;6.496;2023-03-11T06:54:36;5.72;;;3.83;;
351;SDS011;164;50.784;6.496;2023-03-11T06:57:05;5.82;;;3.60;;
351;SDS011;164;50.784;6.496;2023-03-11T06:59:33;6.13;;;3.85;;
351;SDS011;164;50.784;6.496;2023-03-11T07:02:01;6.07;;;3.45;;
351;SDS011;164;50.784;6.496;2023-03-11T07:04:29;3.80;;;3.60;;
351;SDS011;164;50.784;6.496;2023-03-11T07:06:56;4.35;;;3.30;;
351;SDS011;164;50.784;6.496;2023-03-11T07:09:24;6.90;;;2.88;;
351;SDS011;164;50.784;6.496;2023-03-11T07:11:52;6.07;;;3.80;;
351;SDS011;164;50.784;6.496;2023-03-11T07:14:19;3.97;;;3.40;;
351;SDS011;164;50.784;6.496;2023-03-11T07:16:47;8.02;;;4.05;;
351;SDS011;164;50.784;6.496;2023-03-11T07:19:16;10.30;;;4.00;;
351;SDS011;164;50.784;6.496;2023-03-11T07:21:43;8.07;;;4.40;;
351;SDS011;164;50.784;6.496;2023-03-11T07:24:19;6.57;;;3.10;;
351;SDS011;164;50.784;6.496;2023-03-11T07:26:47;4.85;;;3.83;;
351;SDS011;164;50.784;6.496;2023-03-11T07:29:14;5.90;;;3.58;;
351;SDS011;164;50.784;6.496;2023-03-11T07:31:41;5.13;;;4.03;;
351;SDS011;164;50.784;6.496;2023-03-11T07:34:09;5.22;;;3.75;;
351;SDS011;164;50.784;6.496;2023-03-11T07:36:39;5.60;;;3.97;;
351;SDS011;164;50.784;6.496;2023-03-11T07:39:09;6.80;;;4.28;;
351;SDS011;164;50.784;6.496;2023-03-11T07:41:38;6.10;;;3.60;;
351;SDS011;164;50.784;6.496;2023-03-11T07:44:05;4.93;;;3.80;;
351;SDS011;164;50.784;6.496;2023-03-11T07:46:32;9.02;;;3.97;;
351;SDS011;164;50.784;6.496;2023-03-11T07:49:00;7.43;;;4.78;;
351;SDS011;164;50.784;6.496;2023-03-11T07:51:28;10.55;;;3.95;;
351;SDS011;164;50.784;6.496;2023-03-11T07:53:58;7.85;;;4.30;;
351;SDS011;164;50.784;6.496;2023-03-11T07:56:26;4.93;;;3.50;;
351;SDS011;164;50.784;6.496;2023-03-11T07:58:53;6.10;;;4.30;;
351;SDS011;164;50.784;6.496;2023-03-11T08:01:22;9.27;;;3.88;;
351;SDS011;164;50.784;6.496;2023-03-11T08:03:50;7.60;;;3.92;;
351;SDS011;164;50.784;6.496;2023-03-11T08:06:23;5.60;;;3.58;;
351;SDS011;164;50.784;6.496;2023-03-11T08:08:50;6.35;;;3.28;;
351;SDS011;164;50.784;6.496;2023-03-11T08:11:19;6.18;;;3.45;;
351;SDS011;164;50.784;6.496;2023-03-11T08:13:48;6.45;;;3.50;;
351;SDS011;164;50.784;6.496;2023-03-11T08:16:17;4.40;;;3.78;;
351;SDS011;164;50.784;6.496;2023-03-11T08:18:44;7.15;;;3.40;;
351;SDS011;164;50.784;6.496;2023-03-11T08:21:13;4.38;;;2.75;;
351;SDS011;164;50.784;6.496;2023-03-11T08:23:40;7.30;;;4.60;;
351;SDS011;164;50.784;6.496;2023-03-11T08:26:08;6.38;;;3.05;;
351;SDS011;164;50.784;6.496;2023-03-11T08:28:37;7.95;;;4.10;;
351;SDS011;164;50.784;6.496;2023-03-11T08:31:10;5.75;;;3.08;;
351;SDS011;164;50.784;6.496;2023-03-11T08:33:38;7.30;;;3.80;;
351;SDS011;164;50.784;6.496;2023-03-11T08:36:05;6.07;;;3.10;;
351;SDS011;164;50.784;6.496;2023-03-11T08:38:33;3.90;;;3.50;;
351;SDS011;164;50.784;6.496;2023-03-11T08:41:00;4.03;;;3.10;;
351;SDS011;164;50.784;6.496;2023-03-11T08:43:27;4.43;;;2.60;;
351;SDS011;164;50.784;6.496;2023-03-11T08:45:56;5.43;;;3.05;;
351;SDS011;164;50.784;6.496;2023-03-11T08:48:25;6.55;;;2.47;;
351;SDS011;164;50.784;6.496;2023-03-11T08:50:55;8.55;;;3.15;;
351;SDS011;164;50.784;6.496;2023-03-11T08:53:22;5.15;;;2.88;;
351;SDS011;164;50.784;6.496;2023-03-11T08:55:50;4.75;;;2.40;;
351;SDS011;164;50.784;6.496;2023-03-11T08:58:18;6.00;;;2.60;;
351;SDS011;164;50.784;6.496;2023-03-11T09:00:45;5.35;;;2.50;;
351;SDS011;164;50.784;6.496;2023-03-11T09:03:15;4.13;;;2.38;;
351;SDS011;164;50.784;6.496;2023-03-11T09:05:42;6.45;;;3.55;;
351;SDS011;164;50.784;6.496;2023-03-11T09:08:09;8.57;;;3.95;;
351;SDS011;164;50.784;6.496;2023-03-11T09:10:37;3.83;;;2.40;;
351;SDS011;164;50.784;6.496;2023-03-11T09:13:04;7.32;;;3.33;;
351;SDS011;164;50.784;6.496;2023-03-11T09:15:31;6.90;;;2.50;;
351;SDS011;164;50.784;6.496;2023-03-11T09:18:00;6.75;;;2.72;;
351;SDS011;164;50.784;6.496;2023-03-11T09:20:29;6.07;;;2.97;;
351;SDS011;164;50.784;6.496;2023-03-11T09:22:56;5.07;;;2.28;;
351;SDS011;164;50.784;6.496;2023-03-11T09:25:23;4.03;;;2.03;;
351;SDS011;164;50.784;6.496;2023-03-11T09:27:51;4.30;;;1.90;;
351;SDS011;164;50.784;6.496;2023-03-11T09:30:18;4.35;;;2.30;;
351;SDS011;164;50.784;6.496;2023-03-11T09:32:45;3.40;;;2.10;;
351;SDS011;164;50.784;6.496;2023-03-11T09:35:13;4.30;;;2.13;;
351;SDS011;164;50.784;6.496;2023-03-11T09:37:41;2.13;;;1.25;;
351;SDS011;164;50.784;6.496;2023-03-11T09:40:09;6.22;;;2.00;;
351;SDS011;164;50.784;6.496;2023-03-11T09:42:38;3.17;;;1.85;;
351;SDS011;164;50.784;6.496;2023-03-11T09:45:10;4.88;;;1.77;;
351;SDS011;164;50.784;6.496;2023-03-11T09:47:44;3.42;;;1.67;;
351;SDS011;164;50.784;6.496;2023-03-11T09:50:14;3.50;;;1.55;;
351;SDS011;164;50.784;6.496;2023-03-11T09:52:45;2.50;;;0.82;;
351;SDS011;164;50.784;6.496;2023-03-11T09:55:24;1.98;;;1.25;;
351;SDS011;164;50.784;6.496;2023-03-11T09:57:52;3.83;;;1.10;;
351;SDS011;164;50.784;6.496;2023-03-11T10:00:21;1.63;;;0.95;;
351;SDS011;164;50.784;6.496;2023-03-11T10:02:49;2.47;;;1.20;;
351;SDS011;164;50.784;6.496;2023-03-11T10:05:19;4.05;;;1.27;;
351;SDS011;164;50.784;6.496;2023-03-11T10:07:50;2.70;;;1.40;;
351;SDS011;164;50.784;6.496;2023-03-11T10:10:19;1.52;;;1.10;;
351;SDS011;164;50.784;6.496;2023-03-11T10:12:48;2.13;;;1.17;;
351;SDS011;164;50.784;6.496;2023-03-11T10:15:20;2.10;;;1.42;;
351;SDS011;164;50.784;6.496;2023-03-11T10:18:09;2.80;;;1.42;;
351;SDS011;164;50.784;6.496;2023-03-11T10:20:45;5.00;;;2.20;;
351;SDS011;164;50.784;6.496;2023-03-11T10:23:20;2.15;;;1.38;;
351;SDS011;164;50.784;6.496;2023-03-11T10:25:52;2.65;;;1.23;;
351;SDS011;164;50.784;6.496;2023-03-11T10:28:21;2.28;;;1.10;;
351;SDS011;164;50.784;6.496;2023-03-11T10:30:50;4.80;;;1.60;;
351;SDS011;164;50.784;6.496;2023-03-11T10:33:20;2.63;;;1.30;;
351;SDS011;164;50.784;6.496;2023-03-11T10:35:50;3.70;;;1.38;;
351;SDS011;164;50.784;6.496;2023-03-11T10:38:20;1.55;;;1.00;;
351;SDS011;164;50.784;6.496;2023-03-11T10:40:49;4.28;;;1.90;;
351;SDS011;164;50.784;6.496;2023-03-11T10:43:17;3.17;;;1.00;;
351;SDS011;164;50.784;6.496;2023-03-11T10:45:45;3.63;;;1.15;;
351;SDS011;164;50.784;6.496;2023-03-11T10:48:15;4.30;;;1.50;;
351;SDS011;164;50.784;6.496;2023-03-11T10:50:48;1.58;;;1.02;;
351;SDS011;164;50.784;6.496;2023-03-11T10:53:16;5.63;;;1.95;;
351;SDS011;164;50.784;6.496;2023-03-11T10:55:47;1.95;;;1.20;;
351;SDS011;164;50.784;6.496;2023-03-11T10:58:15;3.75;;;1.10;;
351;SDS011;164;50.784;6.496;2023-03-11T11:00:42;5.30;;;1.85;;
351;SDS011;164;50.784;6.496;2023-03-11T11:03:19;1.23;;;1.02;;
351;SDS011;164;50.784;6.496;2023-03-11T11:05:56;2.63;;;1.40;;
351;SDS011;164;50.784;6.496;2023-03-11T11:08:24;1.40;;;1.10;;
351;SDS011;164;50.784;6.496;2023-03-11T11:10:53;4.00;;;1.55;;
351;SDS011;164;50.784;6.496;2023-03-11T11:13:21;1.65;;;0.98;;
351;SDS011;164;50.784;6.496;2023-03-11T11:15:56;2.65;;;1.15;;
351;SDS011;164;50.784;6.496;2023-03-11T11:18:24;4.22;;;2.30;;
351;SDS011;164;50.784;6.496;2023-03-11T11:20:57;1.95;;;1.30;;
351;SDS011;164;50.784;6.496;2023-03-11T11:23:27;3.45;;;1.63;;
351;SDS011;164;50.784;6.496;2023-03-11T11:25:58;3.17;;;1.20;;
351;SDS011;164;50.784;6.496;2023-03-11T11:28:28;1.88;;;1.17;;
351;SDS011;164;50.784;6.496;2023-03-11T11:30:56;6.18;;;1.70;;
351;SDS011;164;50.784;6.496;2023-03-11T11:33:28;5.00;;;2.05;;
351;SDS011;164;50.784;6.496;2023-03-11T11:35:56;2.75;;;1.10;;
351;SDS011;164;50.784;6.496;2023-03-11T11:38:26;3.17;;;1.48;;
351;SDS011;164;50.784;6.496;2023-03-11T11:40:54;2.90;;;1.83;;
351;SDS011;164;50.784;6.496;2023-03-11T11:43:27;2.10;;;1.65;;
351;SDS011;164;50.784;6.496;2023-03-11T11:45:58;1.58;;;1.10;;
351;SDS011;164;50.784;6.496;2023-03-11T11:48:28;2.28;;;1.40;;
351;SDS011;164;50.784;6.496;2023-03-11T11:50:59;3.75;;;2.10;;
351;SDS011;164;50.784;6.496;2023-03-11T11:53:27;3.80;;;1.70;;
351;SDS011;164;50.784;6.496;2023-03-11T11:55:58;2.25;;;1.25;;
351;SDS011;164;50.784;6.496;2023-03-11T11:58:27;3.58;;;1.77;;
351;SDS011;164;50.784;6.496;2023-03-11T12:00:57;4.32;;;1.98;;
351;SDS011;164;50.784;6.496;2023-03-11T12:03:34;2.75;;;1.20;;
351;SDS011;164;50.784;6.496;2023-03-11T12:06:08;1.50;;;1.05;;
351;SDS011;164;50.784;6.496;2023-03-11T12:08:38;2.05;;;0.82;;
351;SDS011;164;50.784;6.496;2023-03-11T12:11:09;1.83;;;1.15;;
351;SDS011;164;50.784;6.496;2023-03-11T12:13:47;1.95;;;1.30;;
351;SDS011;164;50.784;6.496;2023-03-11T12:16:22;4.97;;;0.93;;
351;SDS011;164;50.784;6.496;2023-03-11T12:18:52;1.05;;;0.85;;
351;SDS011;164;50.784;6.496;2023-03-11T12:21:27;2.42;;;0.90;;
351;SDS011;164;50.784;6.496;2023-03-11T12:24:10;2.60;;;0.90;;
351;SDS011;164;50.784;6.496;2023-03-11T12:26:43;1.55;;;1.13;;
351;SDS011;164;50.784;6.496;2023-03-11T12:29:15;2.13;;;0.90;;
351;SDS011;164;50.784;6.496;2023-03-11T12:31:49;2.33;;;1.30;;
351;SDS011;164;50.784;6.496;2023-03-11T12:34:18;2.75;;;1.77;;
351;SDS011;164;50.784;6.496;2023-03-11T12:36:46;5.90;;;1.30;;
351;SDS011;164;50.784;6.496;2023-03-11T12:39:21;4.30;;;1.35;;
351;SDS011;164;50.784;6.496;2023-03-11T12:44:34;4.72;;;1.02;;
351;SDS011;164;50.784;6.496;2023-03-11T12:47:10;2.55;;;1.38;;
351;SDS011;164;50.784;6.496;2023-03-11T12:49:43;1.23;;;1.02;;
351;SDS011;164;50.784;6.496;2023-03-11T12:57:48;2.28;;;1.10;;
351;SDS011;164;50.784;6.496;2023-03-11T13:00:28;3.08;;;1.15;;
351;SDS011;164;50.784;6.496;2023-03-11T13:05:49;1.75;;;0.95;;
351;SDS011;164;50.784;6.496;2023-03-11T13:08:21;2.15;;;1.15;;
351;SDS011;164;50.784;6.496;2023-03-11T13:10:49;2.83;;;1.30;;
351;SDS011;164;50.784;6.496;2023-03-11T13:13:21;2.60;;;1.25;;
351;SDS011;164;50.784;6.496;2023-03-11T13:15:50;1.33;;;0.80;;
351;SDS011;164;50.784;6.496;2023-03-11T13:18:18;1.90;;;1.40;;
351;SDS011;164;50.784;6.496;2023-03-11T13:20:57;3.75;;;1.08;;
351;SDS011;164;50.784;6.496;2023-03-11T13:23:29;2.75;;;1.00;;
351;SDS011;164;50.784;6.496;2023-03-11T13:26:02;3.80;;;0.88;;
351;SDS011;164;50.784;6.496;2023-03-11T13:28:35;2.97;;;1.60;;
351;SDS011;164;50.784;6.496;2023-03-11T13:31:33;4.75;;;0.90;;
351;SDS011;164;50.784;6.496;2023-03-11T13:34:02;1.17;;;0.80;;
351;SDS011;164;50.784;6.496;2023-03-11T13:36:42;2.33;;;1.35;;
351;SDS011;164;50.784;6.496;2023-03-11T13:39:22;2.78;;;1.00;;
351;SDS011;164;50.784;6.496;2023-03-11T13:41:50;1.65;;;0.90;;
351;SDS011;164;50.784;6.496;2023-03-11T13:44:21;1.80;;;0.93;;
351;SDS011;164;50.784;6.496;2023-03-11T13:46:52;1.88;;;1.52;;
351;SDS011;164;50.784;6.496;2023-03-11T13:49:24;2.30;;;1.25;;
351;SDS011;164;50.784;6.496;2023-03-11T13:51:52;4.70;;;1.60;;
351;SDS011;164;50.784;6.496;2023-03-11T13:54:25;3.25;;;1.55;;
351;SDS011;164;50.784;6.496;2023-03-11T13:56:56;2.15;;;1.27;;
351;SDS011;164;50.784;6.496;2023-03-11T13:59:25;2.20;;;1.10;;
351;SDS011;164;50.784;6.496;2023-03-11T14:01:55;2.50;;;0.80;;
351;SDS011;164;50.784;6.496;2023-03-11T14:04:24;3.53;;;1.45;;
351;SDS011;164;50.784;6.496;2023-03-11T14:06:52;2.65;;;1.00;;
351;SDS011;164;50.784;6.496;2023-03-11T14:09:20;2.17;;;1.20;;
351;SDS011;164;50.784;6.496;2023-03-11T14:11:48;2.05;;;1.10;;
351;SDS011;164;50.784;6.496;2023-03-11T14:14:33;2.75;;;1.33;;
351;SDS011;164;50.784;6.496;2023-03-11T14:17:05;3.80;;;1.48;;
351;SDS011;164;50.784;6.496;2023-03-11T14:19:38;2.63;;;1.50;;
351;SDS011;164;50.784;6.496;2023-03-11T14:22:06;3.10;;;1.20;;
351;SDS011;164;50.784;6.496;2023-03-11T14:24:34;1.50;;;1.38;;
351;SDS011;164;50.784;6.496;2023-03-11T14:27:02;5.07;;;1.40;;
351;SDS011;164;50.784;6.496;2023-03-11T14:29:33;1.15;;;0.95;;
351;SDS011;164;50.784;6.496;2023-03-11T14:32:15;0.80;;;0.70;;
351;SDS011;164;50.784;6.496;2023-03-11T14:34:42;1.50;;;1.00;;
351;SDS011;164;50.784;6.496;2023-03-11T14:37:19;1.00;;;0.80;;
351;SDS011;164;50.784;6.496;2023-03-11T14:39:49;4.20;;;1.38;;
351;SDS011;164;50.784;6.496;2023-03-11T14:42:17;4.22;;;1.63;;
351;SDS011;164;50.784;6.496;2023-03-11T14:44:47;2.10;;;1.52;;
351;SDS011;164;50.784;6.496;2023-03-11T14:47:17;3.15;;;2.00;;
351;SDS011;164;50.784;6.496;2023-03-11T14:49:46;2.13;;;1.67;;
351;SDS011;164;50.784;6.496;2023-03-11T14:52:15;1.95;;;1.33;;
351;SDS011;164;50.784;6.496;2023-03-11T14:54:44;3.42;;;1.40;;
351;SDS011;164;50.784;6.496;2023-03-11T14:57:16;3.20;;;0.95;;
351;SDS011;164;50.784;6.496;2023-03-11T14:59:44;2.90;;;1.65;;
351;SDS011;164;50.784;6.496;2023-03-11T15:02:29;1.90;;;1.05;;
351;SDS011;164;50.784;6.496;2023-03-11T15:04:57;4.80;;;1.50;;
351;SDS011;164;50.784;6.496;2023-03-11T15:07:28;1.70;;;1.25;;
351;SDS011;164;50.784;6.496;2023-03-11T15:09:55;3.03;;;1.05;;
351;SDS011;164;50.784;6.496;2023-03-11T15:12:29;2.67;;;1.58;;
351;SDS011;164;50.784;6.496;2023-03-11T15:14:57;3.17;;;1.20;;
351;SDS011;164;50.784;6.496;2023-03-11T15:17:25;3.42;;;1.15;;
351;SDS011;164;50.784;6.496;2023-03-11T15:19:54;3.33;;;1.35;;
351;SDS011;164;50.784;6.496;2023-03-11T15:22:23;1.60;;;1.48;;
351;SDS011;164;50.784;6.496;2023-03-11T15:24:50;4.03;;;1.92;;
351;SDS011;164;50.784;6.496;2023-03-11T15:27:21;3.50;;;1.17;;
351;SDS011;164;50.784;6.496;2023-03-11T15:29:49;4.32;;;2.00;;
351;SDS011;164;50.784;6.496;2023-03-11T15:32:24;2.92;;;2.05;;
351;SDS011;164;50.784;6.496;2023-03-11T15:35:10;3.08;;;1.48;;
351;SDS011;164;50.784;6.496;2023-03-11T15:37:39;4.18;;;1.10;;
351;SDS011;164;50.784;6.496;2023-03-11T15:40:10;1.98;;;1.45;;
351;SDS011;164;50.784;6.496;2023-03-11T15:42:39;1.30;;;1.10;;
351;SDS011;164;50.784;6.496;2023-03-11T15:45:10;2.20;;;1.10;;
351;SDS011;164;50.784;6.496;2023-03-11T15:47:37;2.67;;;1.40;;
351;SDS011;164;50.784;6.496;2023-03-11T15:50:13;3.92;;;1.45;;
351;SDS011;164;50.784;6.496;2023-03-11T15:52:41;2.22;;;0.90;;
351;SDS011;164;50.784;6.496;2023-03-11T15:55:08;2.05;;;1.45;;
351;SDS011;164;50.784;6.496;2023-03-11T15:57:36;4.00;;;1.70;;
351;SDS011;164;50.784;6.496;2023-03-11T16:00:06;2.65;;;0.98;;
351;SDS011;164;50.784;6.496;2023-03-11T16:02:39;2.20;;;1.30;;
351;SDS011;164;50.784;6.496;2023-03-11T16:05:11;4.55;;;1.50;;
351;SDS011;164;50.784;6.496;2023-03-11T16:07:42;4.25;;;1.40;;
351;SDS011;164;50.784;6.496;2023-03-11T16:10:11;3.92;;;1.40;;
351;SDS011;164;50.784;6.496;2023-03-11T16:12:39;3.90;;;2.40;;
351;SDS011;164;50.784;6.496;2023-03-11T16:15:09;1.52;;;0.85;;